sensor_id;sensor_type;location;lat;lon;timestamp;P1;durP1;ratioP1;P2;durP2;ratioP2
35084;SDS011;21267;51.032;6.998;2023-04-03T00:01:38;8.55;;;4.78;;
35084;SDS011;21267;51.032;6.998;2023-04-03T00:04:05;8.65;;;4.70;;
35084;SDS011;21267;51.032;6.998;2023-04-03T00:06:32;6.82;;;4.90;;
35084;SDS011;21267;51.032;6.998;2023-04-03T00:08:59;8.87;;;4.63;;
35084;SDS011;21267;51.032;6.998;2023-04-03T00:11:26;8.50;;;5.27;;
35084;SDS011;21267;51.032;6.998;2023-04-03T00:13:52;6.97;;;4.50;;
35084;SDS011;21267;51.032;6.998;2023-04-03T00:16:19;6.88;;;4.88;;
35084;SDS011;21267;51.032;6.998;2023-04-03T00:18:46;8.80;;;4.90;;
35084;SDS011;21267;51.032;6.998;2023-04-03T00:21:13;8.85;;;5.03;;
35084;SDS011;21267;51.032;6.998;2023-04-03T00:23:40;9.20;;;5.55;;
35084;SDS011;21267;51.032;6.998;2023-04-03T00:26:07;5.32;;;4.78;;
35084;SDS011;21267;51.032;6.998;2023-04-03T00:28:34;8.20;;;4.30;;
35084;SDS011;21267;51.032;6.998;2023-04-03T00:31:01;6.63;;;4.10;;
35084;SDS011;21267;51.032;6.998;2023-04-03T00:33:28;7.47;;;5.10;;
35084;SDS011;21267;51.032;6.998;2023-04-03T00:35:54;6.20;;;4.65;;
35084;SDS011;21267;51.032;6.998;2023-04-03T00:38:21;9.00;;;5.50;;
35084;SDS011;21267;51.032;6.998;2023-04-03T00:40:48;6.05;;;4.45;;
35084;SDS011;21267;51.032;6.998;2023-04-03T00:43:16;8.68;;;5.35;;
35084;SDS011;21267;51.032;6.998;2023-04-03T00:45:47;7.32;;;4.38;;
35084;SDS011;21267;51.032;6.998;2023-04-03T00:48:32;5.78;;;5.25;;
35084;SDS011;21267;51.032;6.998;2023-04-03T00:51:04;10.60;;;4.63;;
35084;SDS011;21267;51.032;6.998;2023-04-03T00:53:35;7.63;;;5.05;;
35084;SDS011;21267;51.032;6.998;2023-04-03T00:56:09;5.97;;;5.00;;
35084;SDS011;21267;51.032;6.998;2023-04-03T00:58:42;10.10;;;4.88;;
35084;SDS011;21267;51.032;6.998;2023-04-03T01:01:26;7.50;;;5.28;;
35084;SDS011;21267;51.032;6.998;2023-04-03T01:03:55;7.95;;;4.85;;
35084;SDS011;21267;51.032;6.998;2023-04-03T01:06:26;6.83;;;5.30;;
35084;SDS011;21267;51.032;6.998;2023-04-03T01:08:57;8.00;;;5.18;;
35084;SDS011;21267;51.032;6.998;2023-04-03T01:11:26;6.60;;;4.88;;
35084;SDS011;21267;51.032;6.998;2023-04-03T01:13:53;7.33;;;3.73;;
35084;SDS011;21267;51.032;6.998;2023-04-03T01:16:19;8.25;;;5.70;;
35084;SDS011;21267;51.032;6.998;2023-04-03T01:18:46;6.90;;;4.63;;
35084;SDS011;21267;51.032;6.998;2023-04-03T01:24:12;7.18;;;4.95;;
35084;SDS011;21267;51.032;6.998;2023-04-03T01:26:45;6.32;;;4.80;;
35084;SDS011;21267;51.032;6.998;2023-04-03T01:29:11;11.20;;;5.88;;
35084;SDS011;21267;51.032;6.998;2023-04-03T01:31:52;8.00;;;4.63;;
35084;SDS011;21267;51.032;6.998;2023-04-03T01:34:21;7.50;;;5.32;;
35084;SDS011;21267;51.032;6.998;2023-04-03T01:36:49;5.80;;;5.03;;
35084;SDS011;21267;51.032;6.998;2023-04-03T01:39:17;6.90;;;5.30;;
35084;SDS011;21267;51.032;6.998;2023-04-03T01:41:44;7.68;;;5.63;;
35084;SDS011;21267;51.032;6.998;2023-04-03T01:44:11;8.02;;;5.55;;
35084;SDS011;21267;51.032;6.998;2023-04-03T01:46:38;8.20;;;5.43;;
35084;SDS011;21267;51.032;6.998;2023-04-03T01:49:05;7.50;;;5.72;;
35084;SDS011;21267;51.032;6.998;2023-04-03T01:51:31;5.03;;;4.40;;
35084;SDS011;21267;51.032;6.998;2023-04-03T01:53:59;6.03;;;5.10;;
35084;SDS011;21267;51.032;6.998;2023-04-03T01:56:26;7.68;;;4.20;;
35084;SDS011;21267;51.032;6.998;2023-04-03T01:58:53;5.07;;;4.38;;
35084;SDS011;21267;51.032;6.998;2023-04-03T02:01:19;6.65;;;4.78;;
35084;SDS011;21267;51.032;6.998;2023-04-03T02:03:47;10.52;;;6.00;;
35084;SDS011;21267;51.032;6.998;2023-04-03T02:06:14;4.45;;;4.03;;
35084;SDS011;21267;51.032;6.998;2023-04-03T02:08:41;9.10;;;4.75;;
35084;SDS011;21267;51.032;6.998;2023-04-03T02:11:07;4.97;;;4.25;;
35084;SDS011;21267;51.032;6.998;2023-04-03T02:13:34;8.52;;;4.97;;
35084;SDS011;21267;51.032;6.998;2023-04-03T02:16:08;7.30;;;4.15;;
35084;SDS011;21267;51.032;6.998;2023-04-03T02:18:38;4.13;;;3.72;;
35084;SDS011;21267;51.032;6.998;2023-04-03T02:21:06;5.57;;;3.95;;
35084;SDS011;21267;51.032;6.998;2023-04-03T02:23:32;6.22;;;4.15;;
35084;SDS011;21267;51.032;6.998;2023-04-03T02:26:07;4.65;;;4.25;;
35084;SDS011;21267;51.032;6.998;2023-04-03T02:28:35;8.77;;;4.28;;
35084;SDS011;21267;51.032;6.998;2023-04-03T02:31:03;5.07;;;3.95;;
35084;SDS011;21267;51.032;6.998;2023-04-03T02:33:30;6.30;;;4.10;;
35084;SDS011;21267;51.032;6.998;2023-04-03T02:35:58;4.45;;;3.60;;
35084;SDS011;21267;51.032;6.998;2023-04-03T02:38:28;5.10;;;3.75;;
35084;SDS011;21267;51.032;6.998;2023-04-03T02:40:59;4.93;;;3.95;;
35084;SDS011;21267;51.032;6.998;2023-04-03T02:43:30;4.95;;;3.45;;
35084;SDS011;21267;51.032;6.998;2023-04-03T02:45:57;4.88;;;3.17;;
35084;SDS011;21267;51.032;6.998;2023-04-03T02:48:24;7.70;;;4.85;;
35084;SDS011;21267;51.032;6.998;2023-04-03T02:50:51;6.88;;;3.78;;
35084;SDS011;21267;51.032;6.998;2023-04-03T02:53:18;6.85;;;4.13;;
35084;SDS011;21267;51.032;6.998;2023-04-03T02:55:45;9.95;;;3.55;;
35084;SDS011;21267;51.032;6.998;2023-04-03T02:58:12;4.90;;;2.83;;
35084;SDS011;21267;51.032;6.998;2023-04-03T03:00:39;5.68;;;3.83;;
35084;SDS011;21267;51.032;6.998;2023-04-03T03:03:06;5.63;;;3.53;;
35084;SDS011;21267;51.032;6.998;2023-04-03T03:05:33;11.93;;;4.78;;
35084;SDS011;21267;51.032;6.998;2023-04-03T03:08:00;5.75;;;3.78;;
35084;SDS011;21267;51.032;6.998;2023-04-03T03:10:26;5.03;;;3.38;;
35084;SDS011;21267;51.032;6.998;2023-04-03T03:12:53;5.63;;;3.38;;
35084;SDS011;21267;51.032;6.998;2023-04-03T03:15:20;6.93;;;4.22;;
35084;SDS011;21267;51.032;6.998;2023-04-03T03:17:46;5.93;;;3.95;;
35084;SDS011;21267;51.032;6.998;2023-04-03T03:20:13;5.15;;;3.17;;
35084;SDS011;21267;51.032;6.998;2023-04-03T03:22:42;7.40;;;3.25;;
35084;SDS011;21267;51.032;6.998;2023-04-03T03:25:11;8.07;;;3.33;;
35084;SDS011;21267;51.032;6.998;2023-04-03T03:27:38;6.28;;;4.28;;
35084;SDS011;21267;51.032;6.998;2023-04-03T03:30:07;6.80;;;3.70;;
35084;SDS011;21267;51.032;6.998;2023-04-03T03:32:34;5.30;;;3.13;;
35084;SDS011;21267;51.032;6.998;2023-04-03T03:35:01;4.27;;;2.40;;
35084;SDS011;21267;51.032;6.998;2023-04-03T03:37:29;6.80;;;3.63;;
35084;SDS011;21267;51.032;6.998;2023-04-03T03:39:55;4.25;;;3.20;;
35084;SDS011;21267;51.032;6.998;2023-04-03T03:42:22;3.60;;;1.93;;
35084;SDS011;21267;51.032;6.998;2023-04-03T03:44:49;3.45;;;2.67;;
35084;SDS011;21267;51.032;6.998;2023-04-03T03:47:16;4.60;;;2.53;;
35084;SDS011;21267;51.032;6.998;2023-04-03T03:49:43;3.90;;;3.00;;
35084;SDS011;21267;51.032;6.998;2023-04-03T03:52:09;3.65;;;2.53;;
35084;SDS011;21267;51.032;6.998;2023-04-03T03:54:37;2.97;;;1.90;;
35084;SDS011;21267;51.032;6.998;2023-04-03T03:57:04;4.93;;;2.67;;
35084;SDS011;21267;51.032;6.998;2023-04-03T03:59:31;7.73;;;2.57;;
35084;SDS011;21267;51.032;6.998;2023-04-03T04:01:58;7.20;;;3.22;;
35084;SDS011;21267;51.032;6.998;2023-04-03T04:04:24;7.25;;;2.88;;
35084;SDS011;21267;51.032;6.998;2023-04-03T04:06:52;4.68;;;2.08;;
35084;SDS011;21267;51.032;6.998;2023-04-03T04:09:19;4.85;;;2.53;;
35084;SDS011;21267;51.032;6.998;2023-04-03T04:11:48;2.95;;;2.00;;
35084;SDS011;21267;51.032;6.998;2023-04-03T04:14:14;4.05;;;1.80;;
35084;SDS011;21267;51.032;6.998;2023-04-03T04:16:41;7.70;;;2.33;;
35084;SDS011;21267;51.032;6.998;2023-04-03T04:19:08;6.00;;;3.17;;
35084;SDS011;21267;51.032;6.998;2023-04-03T04:21:35;2.20;;;1.38;;
35084;SDS011;21267;51.032;6.998;2023-04-03T04:24:01;6.22;;;1.98;;
35084;SDS011;21267;51.032;6.998;2023-04-03T04:26:29;3.67;;;1.53;;
35084;SDS011;21267;51.032;6.998;2023-04-03T04:28:55;4.38;;;2.10;;
35084;SDS011;21267;51.032;6.998;2023-04-03T04:31:22;6.68;;;1.70;;
35084;SDS011;21267;51.032;6.998;2023-04-03T04:33:49;6.73;;;2.57;;
35084;SDS011;21267;51.032;6.998;2023-04-03T04:36:19;4.60;;;2.00;;
35084;SDS011;21267;51.032;6.998;2023-04-03T04:38:51;4.25;;;1.80;;
35084;SDS011;21267;51.032;6.998;2023-04-03T04:41:22;3.13;;;1.77;;
35084;SDS011;21267;51.032;6.998;2023-04-03T04:43:49;3.38;;;1.92;;
35084;SDS011;21267;51.032;6.998;2023-04-03T04:46:16;3.65;;;1.38;;
35084;SDS011;21267;51.032;6.998;2023-04-03T04:48:44;3.53;;;2.17;;
35084;SDS011;21267;51.032;6.998;2023-04-03T04:51:11;6.53;;;2.00;;
35084;SDS011;21267;51.032;6.998;2023-04-03T04:53:37;6.70;;;2.63;;
35084;SDS011;21267;51.032;6.998;2023-04-03T04:56:07;3.67;;;1.58;;
35084;SDS011;21267;51.032;6.998;2023-04-03T04:58:35;13.23;;;4.88;;
35084;SDS011;21267;51.032;6.998;2023-04-03T05:01:02;3.58;;;1.95;;
35084;SDS011;21267;51.032;6.998;2023-04-03T05:03:30;4.75;;;2.15;;
35084;SDS011;21267;51.032;6.998;2023-04-03T05:05:58;4.37;;;1.70;;
35084;SDS011;21267;51.032;6.998;2023-04-03T05:08:24;3.33;;;1.58;;
35084;SDS011;21267;51.032;6.998;2023-04-03T05:10:51;5.78;;;1.75;;
35084;SDS011;21267;51.032;6.998;2023-04-03T05:13:21;5.07;;;1.83;;
35084;SDS011;21267;51.032;6.998;2023-04-03T05:15:48;2.17;;;1.60;;
35084;SDS011;21267;51.032;6.998;2023-04-03T05:18:15;3.53;;;1.87;;
35084;SDS011;21267;51.032;6.998;2023-04-03T05:20:42;6.68;;;1.88;;
35084;SDS011;21267;51.032;6.998;2023-04-03T05:23:10;5.07;;;2.42;;
35084;SDS011;21267;51.032;6.998;2023-04-03T05:28:04;4.27;;;1.97;;
35084;SDS011;21267;51.032;6.998;2023-04-03T05:30:32;4.05;;;2.38;;
35084;SDS011;21267;51.032;6.998;2023-04-03T05:32:59;9.95;;;2.45;;
35084;SDS011;21267;51.032;6.998;2023-04-03T05:35:26;7.57;;;2.20;;
35084;SDS011;21267;51.032;6.998;2023-04-03T05:37:53;4.82;;;2.20;;
35084;SDS011;21267;51.032;6.998;2023-04-03T05:40:21;4.78;;;2.08;;
35084;SDS011;21267;51.032;6.998;2023-04-03T05:42:47;6.47;;;2.20;;
35084;SDS011;21267;51.032;6.998;2023-04-03T05:45:14;5.25;;;2.50;;
35084;SDS011;21267;51.032;6.998;2023-04-03T05:47:41;4.85;;;2.08;;
35084;SDS011;21267;51.032;6.998;2023-04-03T05:50:07;4.78;;;1.90;;
35084;SDS011;21267;51.032;6.998;2023-04-03T05:52:35;4.75;;;2.22;;
35084;SDS011;21267;51.032;6.998;2023-04-03T05:55:04;5.70;;;1.60;;
35084;SDS011;21267;51.032;6.998;2023-04-03T05:57:31;6.43;;;2.20;;
35084;SDS011;21267;51.032;6.998;2023-04-03T05:59:58;8.13;;;2.38;;
35084;SDS011;21267;51.032;6.998;2023-04-03T06:02:27;5.10;;;1.83;;
35084;SDS011;21267;51.032;6.998;2023-04-03T06:04:54;3.25;;;1.65;;
35084;SDS011;21267;51.032;6.998;2023-04-03T06:07:21;6.10;;;1.92;;
35084;SDS011;21267;51.032;6.998;2023-04-03T06:09:50;4.25;;;2.67;;
35084;SDS011;21267;51.032;6.998;2023-04-03T06:12:20;5.65;;;3.15;;
35084;SDS011;21267;51.032;6.998;2023-04-03T06:14:47;5.50;;;2.50;;
35084;SDS011;21267;51.032;6.998;2023-04-03T06:17:15;7.20;;;1.70;;
35084;SDS011;21267;51.032;6.998;2023-04-03T06:19:43;4.80;;;2.45;;
35084;SDS011;21267;51.032;6.998;2023-04-03T06:22:10;5.78;;;1.88;;
35084;SDS011;21267;51.032;6.998;2023-04-03T06:24:38;4.90;;;2.20;;
35084;SDS011;21267;51.032;6.998;2023-04-03T06:27:05;6.27;;;1.90;;
35084;SDS011;21267;51.032;6.998;2023-04-03T06:33:39;4.57;;;2.05;;
35084;SDS011;21267;51.032;6.998;2023-04-03T06:36:19;5.60;;;1.95;;
35084;SDS011;21267;51.032;6.998;2023-04-03T06:38:47;4.18;;;1.95;;
35084;SDS011;21267;51.032;6.998;2023-04-03T06:41:14;3.50;;;1.57;;
35084;SDS011;21267;51.032;6.998;2023-04-03T06:46:16;5.43;;;1.87;;
35084;SDS011;21267;51.032;6.998;2023-04-03T06:48:44;5.53;;;1.70;;
35084;SDS011;21267;51.032;6.998;2023-04-03T06:51:19;2.35;;;1.17;;
35084;SDS011;21267;51.032;6.998;2023-04-03T06:53:48;2.45;;;1.50;;
35084;SDS011;21267;51.032;6.998;2023-04-03T06:56:17;3.20;;;1.67;;
35084;SDS011;21267;51.032;6.998;2023-04-03T06:58:45;1.92;;;1.20;;
35084;SDS011;21267;51.032;6.998;2023-04-03T07:01:13;8.40;;;1.45;;
35084;SDS011;21267;51.032;6.998;2023-04-03T07:03:41;4.05;;;1.77;;
35084;SDS011;21267;51.032;6.998;2023-04-03T07:06:09;4.50;;;2.03;;
35084;SDS011;21267;51.032;6.998;2023-04-03T07:08:38;4.60;;;1.40;;
35084;SDS011;21267;51.032;6.998;2023-04-03T07:11:05;1.00;;;0.52;;
35084;SDS011;21267;51.032;6.998;2023-04-03T07:13:32;1.70;;;0.77;;
35084;SDS011;21267;51.032;6.998;2023-04-03T07:15:59;3.53;;;0.83;;
35084;SDS011;21267;51.032;6.998;2023-04-03T07:18:26;4.10;;;0.90;;
35084;SDS011;21267;51.032;6.998;2023-04-03T07:20:53;3.27;;;1.27;;
35084;SDS011;21267;51.032;6.998;2023-04-03T07:23:19;5.55;;;0.88;;
35084;SDS011;21267;51.032;6.998;2023-04-03T07:25:46;3.20;;;1.20;;
35084;SDS011;21267;51.032;6.998;2023-04-03T07:28:14;3.15;;;1.05;;
35084;SDS011;21267;51.032;6.998;2023-04-03T07:30:48;4.07;;;1.48;;
35084;SDS011;21267;51.032;6.998;2023-04-03T07:33:20;3.92;;;1.75;;
35084;SDS011;21267;51.032;6.998;2023-04-03T07:35:48;5.00;;;1.25;;
35084;SDS011;21267;51.032;6.998;2023-04-03T07:38:15;4.88;;;1.67;;
35084;SDS011;21267;51.032;6.998;2023-04-03T07:40:48;2.35;;;1.15;;
35084;SDS011;21267;51.032;6.998;2023-04-03T07:43:17;2.67;;;1.13;;
35084;SDS011;21267;51.032;6.998;2023-04-03T07:45:44;4.10;;;1.92;;
35084;SDS011;21267;51.032;6.998;2023-04-03T07:48:11;2.45;;;1.10;;
35084;SDS011;21267;51.032;6.998;2023-04-03T07:50:42;3.40;;;1.25;;
35084;SDS011;21267;51.032;6.998;2023-04-03T07:53:09;6.03;;;1.50;;
35084;SDS011;21267;51.032;6.998;2023-04-03T07:55:36;3.63;;;0.80;;
35084;SDS011;21267;51.032;6.998;2023-04-03T07:58:12;3.72;;;1.25;;
35084;SDS011;21267;51.032;6.998;2023-04-03T08:00:40;5.88;;;1.55;;
35084;SDS011;21267;51.032;6.998;2023-04-03T08:03:08;4.03;;;1.50;;
35084;SDS011;21267;51.032;6.998;2023-04-03T08:05:41;6.88;;;1.60;;
35084;SDS011;21267;51.032;6.998;2023-04-03T08:08:09;5.18;;;1.65;;
35084;SDS011;21267;51.032;6.998;2023-04-03T08:10:38;3.25;;;1.25;;
35084;SDS011;21267;51.032;6.998;2023-04-03T08:13:05;3.47;;;0.90;;
35084;SDS011;21267;51.032;6.998;2023-04-03T08:15:33;2.75;;;0.82;;
35084;SDS011;21267;51.032;6.998;2023-04-03T08:18:03;3.17;;;1.27;;
35084;SDS011;21267;51.032;6.998;2023-04-03T08:20:30;3.88;;;1.30;;
35084;SDS011;21267;51.032;6.998;2023-04-03T08:22:57;3.22;;;0.80;;
35084;SDS011;21267;51.032;6.998;2023-04-03T08:25:30;2.17;;;0.90;;
35084;SDS011;21267;51.032;6.998;2023-04-03T08:27:57;4.32;;;1.23;;
35084;SDS011;21267;51.032;6.998;2023-04-03T08:30:26;3.35;;;1.58;;
35084;SDS011;21267;51.032;6.998;2023-04-03T08:33:02;3.58;;;1.13;;
35084;SDS011;21267;51.032;6.998;2023-04-03T08:35:31;2.45;;;0.98;;
35084;SDS011;21267;51.032;6.998;2023-04-03T08:37:58;3.30;;;1.08;;
35084;SDS011;21267;51.032;6.998;2023-04-03T08:40:25;2.53;;;1.17;;
35084;SDS011;21267;51.032;6.998;2023-04-03T08:45:51;3.53;;;0.98;;
35084;SDS011;21267;51.032;6.998;2023-04-03T08:48:24;3.92;;;0.95;;
35084;SDS011;21267;51.032;6.998;2023-04-03T08:51:14;3.28;;;1.48;;
35084;SDS011;21267;51.032;6.998;2023-04-03T08:53:56;3.13;;;1.20;;
35084;SDS011;21267;51.032;6.998;2023-04-03T08:56:29;1.88;;;0.88;;
35084;SDS011;21267;51.032;6.998;2023-04-03T08:59:01;3.53;;;1.52;;
35084;SDS011;21267;51.032;6.998;2023-04-03T09:01:34;4.18;;;1.63;;
35084;SDS011;21267;51.032;6.998;2023-04-03T09:04:03;0.93;;;0.35;;
35084;SDS011;21267;51.032;6.998;2023-04-03T09:06:37;1.05;;;0.60;;
35084;SDS011;21267;51.032;6.998;2023-04-03T09:12:00;3.05;;;1.20;;
35084;SDS011;21267;51.032;6.998;2023-04-03T09:22:55;1.08;;;0.70;;
35084;SDS011;21267;51.032;6.998;2023-04-03T09:25:27;2.53;;;0.98;;
35084;SDS011;21267;51.032;6.998;2023-04-03T09:27:59;2.88;;;0.55;;
35084;SDS011;21267;51.032;6.998;2023-04-03T09:30:28;2.58;;;0.95;;
35084;SDS011;21267;51.032;6.998;2023-04-03T09:32:56;4.45;;;1.10;;
35084;SDS011;21267;51.032;6.998;2023-04-03T09:35:27;2.78;;;0.90;;
35084;SDS011;21267;51.032;6.998;2023-04-03T09:43:28;2.03;;;1.15;;
35084;SDS011;21267;51.032;6.998;2023-04-03T09:46:15;3.65;;;0.85;;
35084;SDS011;21267;51.032;6.998;2023-04-03T09:49:04;4.63;;;1.37;;
35084;SDS011;21267;51.032;6.998;2023-04-03T09:51:35;3.70;;;0.63;;
35084;SDS011;21267;51.032;6.998;2023-04-03T09:54:23;1.80;;;1.00;;
35084;SDS011;21267;51.032;6.998;2023-04-03T09:57:09;1.45;;;0.93;;
35084;SDS011;21267;51.032;6.998;2023-04-03T09:59:41;2.40;;;1.13;;
35084;SDS011;21267;51.032;6.998;2023-04-03T10:04:38;4.25;;;1.05;;
35084;SDS011;21267;51.032;6.998;2023-04-03T10:07:28;8.70;;;4.53;;
35084;SDS011;21267;51.032;6.998;2023-04-03T10:10:16;3.08;;;1.15;;
35084;SDS011;21267;51.032;6.998;2023-04-03T10:12:44;8.27;;;3.53;;
35084;SDS011;21267;51.032;6.998;2023-04-03T10:15:14;2.13;;;0.93;;
35084;SDS011;21267;51.032;6.998;2023-04-03T10:17:53;1.10;;;0.55;;
35084;SDS011;21267;51.032;6.998;2023-04-03T10:20:42;2.22;;;0.90;;
35084;SDS011;21267;51.032;6.998;2023-04-03T10:31:35;2.13;;;0.93;;
35084;SDS011;21267;51.032;6.998;2023-04-03T10:36:51;1.80;;;1.02;;
35084;SDS011;21267;51.032;6.998;2023-04-03T10:39:40;1.80;;;0.80;;
35084;SDS011;21267;51.032;6.998;2023-04-03T10:45:08;1.42;;;0.60;;
35084;SDS011;21267;51.032;6.998;2023-04-03T10:47:51;2.63;;;0.77;;
35084;SDS011;21267;51.032;6.998;2023-04-03T10:50:46;3.80;;;0.93;;
35084;SDS011;21267;51.032;6.998;2023-04-03T10:53:18;1.35;;;0.60;;
35084;SDS011;21267;51.032;6.998;2023-04-03T10:56:19;1.48;;;0.60;;
35084;SDS011;21267;51.032;6.998;2023-04-03T10:58:50;2.20;;;0.90;;
35084;SDS011;21267;51.032;6.998;2023-04-03T11:01:21;1.60;;;0.90;;
35084;SDS011;21267;51.032;6.998;2023-04-03T11:03:53;1.30;;;0.32;;
35084;SDS011;21267;51.032;6.998;2023-04-03T11:06:25;2.15;;;0.68;;
35084;SDS011;21267;51.032;6.998;2023-04-03T11:09:03;2.83;;;1.13;;
35084;SDS011;21267;51.032;6.998;2023-04-03T11:11:46;1.63;;;0.53;;
35084;SDS011;21267;51.032;6.998;2023-04-03T11:14:33;2.50;;;0.82;;
35084;SDS011;21267;51.032;6.998;2023-04-03T11:19:36;1.13;;;0.63;;
35084;SDS011;21267;51.032;6.998;2023-04-03T11:22:09;0.47;;;0.45;;
35084;SDS011;21267;51.032;6.998;2023-04-03T11:24:46;3.40;;;1.48;;
35084;SDS011;21267;51.032;6.998;2023-04-03T11:27:22;3.40;;;0.70;;
35084;SDS011;21267;51.032;6.998;2023-04-03T11:29:50;2.53;;;0.70;;
35084;SDS011;21267;51.032;6.998;2023-04-03T11:35:13;3.10;;;0.30;;
35084;SDS011;21267;51.032;6.998;2023-04-03T11:37:42;1.70;;;0.70;;
35084;SDS011;21267;51.032;6.998;2023-04-03T11:42:42;1.60;;;0.55;;
35084;SDS011;21267;51.032;6.998;2023-04-03T11:53:46;1.60;;;0.77;;
35084;SDS011;21267;51.032;6.998;2023-04-03T12:04:11;1.75;;;1.20;;
35084;SDS011;21267;51.032;6.998;2023-04-03T12:06:48;2.50;;;1.10;;
35084;SDS011;21267;51.032;6.998;2023-04-03T12:09:35;0.93;;;0.50;;
35084;SDS011;21267;51.032;6.998;2023-04-03T12:12:29;6.53;;;3.58;;
35084;SDS011;21267;51.032;6.998;2023-04-03T12:15:20;3.63;;;1.42;;
35084;SDS011;21267;51.032;6.998;2023-04-03T12:17:47;0.63;;;0.22;;
35084;SDS011;21267;51.032;6.998;2023-04-03T12:23:36;1.23;;;0.52;;
35084;SDS011;21267;51.032;6.998;2023-04-03T12:26:25;1.15;;;0.50;;
35084;SDS011;21267;51.032;6.998;2023-04-03T12:34:43;1.35;;;0.63;;
35084;SDS011;21267;51.032;6.998;2023-04-03T12:45:44;0.63;;;0.40;;
35084;SDS011;21267;51.032;6.998;2023-04-03T12:48:17;2.67;;;0.55;;
35084;SDS011;21267;51.032;6.998;2023-04-03T12:50:48;0.70;;;0.50;;
35084;SDS011;21267;51.032;6.998;2023-04-03T12:53:19;0.50;;;0.22;;
35084;SDS011;21267;51.032;6.998;2023-04-03T12:55:57;2.60;;;0.63;;
35084;SDS011;21267;51.032;6.998;2023-04-03T13:01:11;0.47;;;0.23;;
35084;SDS011;21267;51.032;6.998;2023-04-03T13:03:42;2.03;;;0.50;;
35084;SDS011;21267;51.032;6.998;2023-04-03T13:06:21;0.47;;;0.30;;
35084;SDS011;21267;51.032;6.998;2023-04-03T13:08:57;1.20;;;0.70;;
35084;SDS011;21267;51.032;6.998;2023-04-03T13:11:30;3.28;;;0.75;;
35084;SDS011;21267;51.032;6.998;2023-04-03T13:14:20;1.88;;;0.80;;
35084;SDS011;21267;51.032;6.998;2023-04-03T13:17:06;2.85;;;0.98;;
35084;SDS011;21267;51.032;6.998;2023-04-03T13:19:40;1.65;;;0.57;;
35084;SDS011;21267;51.032;6.998;2023-04-03T13:22:28;5.45;;;2.35;;
35084;SDS011;21267;51.032;6.998;2023-04-03T13:25:06;2.78;;;0.45;;
35084;SDS011;21267;51.032;6.998;2023-04-03T13:27:35;3.03;;;0.75;;
35084;SDS011;21267;51.032;6.998;2023-04-03T13:30:02;1.92;;;0.88;;
35084;SDS011;21267;51.032;6.998;2023-04-03T13:32:31;1.60;;;0.40;;
35084;SDS011;21267;51.032;6.998;2023-04-03T13:34:59;3.08;;;0.88;;
35084;SDS011;21267;51.032;6.998;2023-04-03T13:37:52;4.18;;;0.82;;
35084;SDS011;21267;51.032;6.998;2023-04-03T13:40:21;2.78;;;1.45;;
35084;SDS011;21267;51.032;6.998;2023-04-03T13:42:59;3.20;;;0.85;;
35084;SDS011;21267;51.032;6.998;2023-04-03T13:45:40;3.83;;;1.77;;
35084;SDS011;21267;51.032;6.998;2023-04-03T13:48:23;6.93;;;3.55;;
35084;SDS011;21267;51.032;6.998;2023-04-03T13:50:51;3.05;;;0.90;;
35084;SDS011;21267;51.032;6.998;2023-04-03T13:53:20;2.35;;;0.73;;
35084;SDS011;21267;51.032;6.998;2023-04-03T13:58:34;2.20;;;0.90;;
35084;SDS011;21267;51.032;6.998;2023-04-03T14:01:10;2.95;;;2.08;;
35084;SDS011;21267;51.032;6.998;2023-04-03T14:06:27;1.42;;;0.68;;
35084;SDS011;21267;51.032;6.998;2023-04-03T14:08:56;1.02;;;0.47;;
35084;SDS011;21267;51.032;6.998;2023-04-03T14:11:26;2.95;;;0.82;;
35084;SDS011;21267;51.032;6.998;2023-04-03T14:13:58;1.05;;;0.40;;
35084;SDS011;21267;51.032;6.998;2023-04-03T14:16:30;3.35;;;0.68;;
35084;SDS011;21267;51.032;6.998;2023-04-03T14:18:58;1.70;;;0.88;;
35084;SDS011;21267;51.032;6.998;2023-04-03T14:21:25;2.43;;;1.10;;
35084;SDS011;21267;51.032;6.998;2023-04-03T14:23:53;2.53;;;1.30;;
35084;SDS011;21267;51.032;6.998;2023-04-03T14:26:21;2.27;;;0.80;;
35084;SDS011;21267;51.032;6.998;2023-04-03T14:28:51;2.83;;;0.82;;
35084;SDS011;21267;51.032;6.998;2023-04-03T14:31:20;2.30;;;1.02;;
35084;SDS011;21267;51.032;6.998;2023-04-03T14:33:48;1.45;;;0.65;;
35084;SDS011;21267;51.032;6.998;2023-04-03T14:36:16;4.15;;;1.67;;
35084;SDS011;21267;51.032;6.998;2023-04-03T14:38:44;1.88;;;0.68;;
35084;SDS011;21267;51.032;6.998;2023-04-03T14:41:12;2.88;;;0.90;;
35084;SDS011;21267;51.032;6.998;2023-04-03T14:43:44;2.63;;;1.20;;
35084;SDS011;21267;51.032;6.998;2023-04-03T14:48:46;5.93;;;3.35;;
35084;SDS011;21267;51.032;6.998;2023-04-03T14:51:13;1.85;;;0.85;;
35084;SDS011;21267;51.032;6.998;2023-04-03T14:53:42;1.60;;;0.93;;
35084;SDS011;21267;51.032;6.998;2023-04-03T14:59:00;2.88;;;1.10;;
35084;SDS011;21267;51.032;6.998;2023-04-03T15:01:29;1.80;;;1.00;;
35084;SDS011;21267;51.032;6.998;2023-04-03T15:03:56;3.90;;;1.45;;
35084;SDS011;21267;51.032;6.998;2023-04-03T15:06:23;5.35;;;0.95;;
35084;SDS011;21267;51.032;6.998;2023-04-03T15:08:51;4.13;;;2.00;;
35084;SDS011;21267;51.032;6.998;2023-04-03T15:11:18;2.07;;;0.80;;
35084;SDS011;21267;51.032;6.998;2023-04-03T15:13:45;3.63;;;1.10;;
35084;SDS011;21267;51.032;6.998;2023-04-03T15:16:14;2.67;;;0.90;;
35084;SDS011;21267;51.032;6.998;2023-04-03T15:18:45;1.40;;;0.80;;
35084;SDS011;21267;51.032;6.998;2023-04-03T15:21:14;2.58;;;1.10;;
35084;SDS011;21267;51.032;6.998;2023-04-03T15:23:40;4.23;;;1.33;;
35084;SDS011;21267;51.032;6.998;2023-04-03T15:26:08;1.48;;;0.55;;
35084;SDS011;21267;51.032;6.998;2023-04-03T15:28:36;2.93;;;0.90;;
35084;SDS011;21267;51.032;6.998;2023-04-03T15:31:05;3.17;;;0.52;;
35084;SDS011;21267;51.032;6.998;2023-04-03T15:33:33;2.58;;;1.40;;
35084;SDS011;21267;51.032;6.998;2023-04-03T15:36:01;3.60;;;0.90;;
35084;SDS011;21267;51.032;6.998;2023-04-03T15:38:32;3.25;;;1.58;;
35084;SDS011;21267;51.032;6.998;2023-04-03T15:40:59;2.03;;;1.08;;
35084;SDS011;21267;51.032;6.998;2023-04-03T15:43:26;2.70;;;1.00;;
35084;SDS011;21267;51.032;6.998;2023-04-03T15:45:54;2.00;;;0.83;;
35084;SDS011;21267;51.032;6.998;2023-04-03T15:48:24;1.73;;;0.82;;
35084;SDS011;21267;51.032;6.998;2023-04-03T15:50:52;1.75;;;0.47;;
35084;SDS011;21267;51.032;6.998;2023-04-03T15:53:18;2.22;;;1.10;;
35084;SDS011;21267;51.032;6.998;2023-04-03T15:55:47;5.18;;;1.70;;
35084;SDS011;21267;51.032;6.998;2023-04-03T15:58:13;4.43;;;1.10;;
35084;SDS011;21267;51.032;6.998;2023-04-03T16:00:40;3.07;;;1.73;;
35084;SDS011;21267;51.032;6.998;2023-04-03T16:03:11;2.72;;;0.90;;
35084;SDS011;21267;51.032;6.998;2023-04-03T16:05:40;4.68;;;1.33;;
35084;SDS011;21267;51.032;6.998;2023-04-03T16:08:13;2.05;;;1.02;;
35084;SDS011;21267;51.032;6.998;2023-04-03T16:10:40;1.93;;;1.30;;
35084;SDS011;21267;51.032;6.998;2023-04-03T16:13:07;3.72;;;1.20;;
35084;SDS011;21267;51.032;6.998;2023-04-03T16:15:34;5.93;;;3.20;;
35084;SDS011;21267;51.032;6.998;2023-04-03T16:18:03;1.77;;;0.98;;
35084;SDS011;21267;51.032;6.998;2023-04-03T16:20:31;2.90;;;1.45;;
35084;SDS011;21267;51.032;6.998;2023-04-03T16:22:58;2.15;;;1.10;;
35084;SDS011;21267;51.032;6.998;2023-04-03T16:25:26;4.00;;;1.73;;
35084;SDS011;21267;51.032;6.998;2023-04-03T16:27:53;2.17;;;0.80;;
35084;SDS011;21267;51.032;6.998;2023-04-03T16:30:22;2.13;;;0.90;;
35084;SDS011;21267;51.032;6.998;2023-04-03T16:32:49;2.47;;;0.95;;
35084;SDS011;21267;51.032;6.998;2023-04-03T16:35:16;1.37;;;0.60;;
35084;SDS011;21267;51.032;6.998;2023-04-03T16:37:42;2.03;;;1.05;;
35084;SDS011;21267;51.032;6.998;2023-04-03T16:40:09;1.85;;;1.15;;
35084;SDS011;21267;51.032;6.998;2023-04-03T16:42:38;2.70;;;0.85;;
35084;SDS011;21267;51.032;6.998;2023-04-03T16:45:05;1.67;;;0.65;;
35084;SDS011;21267;51.032;6.998;2023-04-03T16:47:33;1.90;;;0.98;;
35084;SDS011;21267;51.032;6.998;2023-04-03T16:50:01;1.42;;;0.85;;